KBTR/BTR METAR and TAF weather

Enter ICAO airport designator
Station Type Date Time Source
KBTR METAR 2018/07/20 13:53 UTC NOAA

KBTR 201353Z 27008KT 6SM HZ SCT012 28/26 A2998 RMK AO2 SLP151 T02830256


Station Type Date Time Source
KBTR Decoded METAR 2018/07/20 13:53 UTC NOAA

BATON ROUGE METRO RYAN FIELD, LA, United States (KBTR) 30-32N 91-09W 21M
Jul 20, 2018 - 09:53 AM EDT / 2018.07.20 1353 UTC
Wind: from the W (270 degrees) at 9 MPH (8 KT):0
Visibility: 6 mile(s):0
Sky conditions: partly cloudy
Weather: haze
Temperature: 82.9 F (28.3 C)
Dew Point: 78.1 F (25.6 C)
Relative Humidity: 85%
Pressure (altimeter): 29.98 in. Hg (1015 hPa)
ob: KBTR 201353Z 27008KT 6SM HZ SCT012 28/26 A2998 RMK AO2 SLP151 T02830256
cycle: 14

Station Type Date Time Source
KBTR TAF 2018/07/20 12:22 UTC NOAA

TAF KBTR 201120Z 2012/2112 26006KT P6SM SCT250
FM210100 22005KT P6SM FEW045 FEW250


Example: see airport list